^^
Lisbon, NH - Weather Station Historical Data
 
Daily Summary for January 25, 2022 Units:  English    Metric   Both
Daily Weekly Monthly Yearly
  Current: High: Low: Average:
Temperature: 29.2 °F 29.2 °F 12.4 °F 16.9 °F
Dew Point: 22.9 °F 22.9 °F 9.3 °F 13.9 °F
Humidity: 77% 92% 75.8% 88%
Wind Speed: 4.1mph 4.1mph 0mph 0.8mph
Wind Gust: 5mph 9mph - -
WindSW - - East
Pressure: 29.83 in 29.86 in 29.79 in -
Precipitation: 0.01 in      
 
 
Tabular Data for January 25, 2022
Time Temperature Dew Point Pressure Wind Wind Speed Wind Gust Humidity Rainfall Rate (Hourly) solar
00:04 12.4 °F 9.3 °F 29.84 in NE 0.6 mph 2 mph 87% 0.00 in 0 W/m2
00:09 12.4 °F 9.3 °F 29.84 in NE 0.6 mph 2 mph 87% 0.00 in 0 W/m2
00:14 12.4 °F 9.3 °F 29.84 in ENE 0.6 mph 2 mph 87.2% 0.00 in 0 W/m2
00:19 12.4 °F 9.5 °F 29.83 in ENE 0.5 mph 2 mph 88% 0.00 in 0 W/m2
00:24 12.4 °F 9.5 °F 29.83 in ENE 0.4 mph 1 mph 88% 0.00 in 0 W/m2
00:29 12.5 °F 9.7 °F 29.83 in NE 0.3 mph 1 mph 88% 0.00 in 0 W/m2
00:34 12.6 °F 9.7 °F 29.82 in NE 0.3 mph 1 mph 88% 0.00 in 0 W/m2
00:39 12.6 °F 9.7 °F 29.82 in NE 0.4 mph 1 mph 88% 0.00 in 0 W/m2
00:44 12.6 °F 9.8 °F 29.82 in Calm   1 mph 88.2% 0.00 in 0 W/m2
00:49 12.6 °F 10 °F 29.82 in NE 0.1 mph 1 mph 89% 0.00 in 0 W/m2
00:54 12.6 °F 10 °F 29.82 in ENE 1.7 mph 3 mph 89% 0.00 in 0 W/m2
00:59 12.6 °F 10 °F 29.82 in ENE 0.7 mph 2 mph 89% 0.00 in 0 W/m2
01:04 12.6 °F 10 °F 29.81 in ENE 0.7 mph 2 mph 89% 0.00 in 0 W/m2
01:09 12.6 °F 10 °F 29.81 in ENE 1.4 mph 3 mph 89% 0.00 in 0 W/m2
01:14 12.6 °F 10 °F 29.81 in ENE 0.9 mph 2 mph 89% 0.00 in 0 W/m2
01:19 12.7 °F 10.1 °F 29.81 in ENE 0.8 mph 2 mph 89% 0.00 in 0 W/m2
01:24 12.7 °F 10.2 °F 29.81 in ENE 1.1 mph 3 mph 89.3% 0.00 in 0 W/m2
01:29 12.6 °F 10.1 °F 29.81 in ENE 0.4 mph 1 mph 89.7% 0.00 in 0 W/m2
01:34 12.7 °F 10.3 °F 29.81 in ENE 0.2 mph 1 mph 90% 0.00 in 0 W/m2
01:39 12.8 °F 10.4 °F 29.81 in ENE 0.1 mph 1 mph 90% 0.00 in 0 W/m2
01:44 12.8 °F 10.4 °F 29.81 in NE 0.1 mph 1 mph 90% 0.00 in 0 W/m2
01:49 12.8 °F 10.4 °F 29.81 in Calm   1 mph 90% 0.00 in 0 W/m2
01:54 12.8 °F 10.4 °F 29.81 in Calm     90% 0.00 in 0 W/m2
01:59 12.8 °F 10.4 °F 29.81 in Calm     90% 0.00 in 0 W/m2
02:04 12.8 °F 10.5 °F 29.81 in NE 0.2 mph 1 mph 90% 0.00 in 0 W/m2
02:09 12.9 °F 10.5 °F 29.81 in NE 0.1 mph 1 mph 90% 0.00 in 0 W/m2
02:14 12.9 °F 10.5 °F 29.81 in NE 0.9 mph 2 mph 90% 0.00 in 0 W/m2
02:19 12.9 °F 10.5 °F 29.81 in ENE 0.1 mph 1 mph 90% 0.00 in 0 W/m2
02:24 12.9 °F 10.5 °F 29.81 in ENE 0.4 mph 2 mph 90% 0.00 in 0 W/m2
02:29 12.9 °F 10.5 °F 29.81 in NE 0.4 mph 2 mph 90% 0.00 in 0 W/m2
02:34 13 °F 10.7 °F 29.81 in NE 0.7 mph 2 mph 90% 0.00 in 0 W/m2
02:39 13.1 °F 10.7 °F 29.81 in NE 0.6 mph 2 mph 90% 0.00 in 0 W/m2
02:44 13.1 °F 10.7 °F 29.81 in NE 0.2 mph 1 mph 90% 0.00 in 0 W/m2
02:49 13.1 °F 10.7 °F 29.81 in NE 0.2 mph 1 mph 90% 0.00 in 0 W/m2
02:54 13.1 °F 10.7 °F 29.81 in NE 0.5 mph 1 mph 90% 0.00 in 0 W/m2
02:59 13 °F 10.6 °F 29.81 in NE 0.1 mph 1 mph 90% 0.00 in 0 W/m2
03:04 12.9 °F 10.5 °F 29.80 in NE 0.4 mph 2 mph 90% 0.00 in 0 W/m2
03:09 13 °F 10.6 °F 29.80 in NE 0.6 mph 2 mph 90% 0.00 in 0 W/m2
03:14 13.1 °F 10.7 °F 29.80 in NE 0.4 mph 2 mph 90% 0.00 in 0 W/m2
03:19 13.1 °F 10.7 °F 29.80 in NE 1 mph 2 mph 90% 0.00 in 0 W/m2
03:24 13.1 °F 10.7 °F 29.80 in NE 0.9 mph 2 mph 90% 0.00 in 0 W/m2
03:29 13.1 °F 10.7 °F 29.80 in ENE 1.2 mph 3 mph 90% 0.00 in 0 W/m2
03:34 13.1 °F 10.8 °F 29.80 in ENE 0.9 mph 2 mph 90% 0.00 in 0 W/m2
03:39 13.2 °F 10.8 °F 29.80 in ENE 0.4 mph 2 mph 90% 0.00 in 0 W/m2
03:44 13.2 °F 10.8 °F 29.80 in ENE 0.7 mph 2 mph 90% 0.00 in 0 W/m2
03:49 13.2 °F 10.8 °F 29.80 in ENE 0.6 mph 2 mph 90% 0.00 in 0 W/m2
03:54 13.2 °F 10.8 °F 29.80 in ENE 0.2 mph 2 mph 90% 0.00 in 0 W/m2
03:59 13.2 °F 10.8 °F 29.80 in NE 0.3 mph 1 mph 90% 0.00 in 0 W/m2
04:04 13.2 °F 10.8 °F 29.79 in NE 0.1 mph 1 mph 90% 0.00 in 0 W/m2
04:09 13.2 °F 10.8 °F 29.79 in NE 0.3 mph 1 mph 90% 0.00 in 0 W/m2
04:14 13.2 °F 10.8 °F 29.79 in NE 0.1 mph 2 mph 90% 0.00 in 0 W/m2
04:19 13.2 °F 10.8 °F 29.79 in Calm   1 mph 90% 0.00 in 0 W/m2
04:24 13.2 °F 10.8 °F 29.79 in Calm   1 mph 90% 0.00 in 0 W/m2
04:29 13.4 °F 11 °F 29.79 in NE 0.4 mph 1 mph 90% 0.00 in 0 W/m2
04:34 13.4 °F 11 °F 29.79 in ENE 0.8 mph 2 mph 90% 0.00 in 0 W/m2
04:39 13.4 °F 11 °F 29.79 in ENE 0.1 mph 2 mph 90% 0.00 in 0 W/m2
04:44 13.4 °F 11 °F 29.79 in ENE 0.5 mph 2 mph 90% 0.00 in 0 W/m2
04:49 13.4 °F 11.1 °F 29.79 in ENE 1 mph 2 mph 90.4% 0.00 in 0 W/m2
04:54 13.6 °F 11.5 °F 29.79 in ENE 0.5 mph 2 mph 91% 0.00 in 0 W/m2
04:59 13.6 °F 11.3 °F 29.79 in Calm   1 mph 90.3% 0.00 in 0 W/m2
05:04 13.6 °F 11.4 °F 29.79 in Calm   1 mph 90.7% 0.00 in 0 W/m2
05:09 13.6 °F 11.5 °F 29.79 in ENE 0.1 mph 1 mph 91% 0.00 in 0 W/m2
05:14 13.6 °F 11.5 °F 29.79 in ENE 0.4 mph 1 mph 91% 0.00 in 0 W/m2
05:19 13.7 °F 11.6 °F 29.79 in ENE 0.2 mph 1 mph 91% 0.00 in 0 W/m2
05:24 13.7 °F 11.6 °F 29.79 in ENE 0.2 mph 1 mph 91% 0.00 in 0 W/m2
05:29 13.7 °F 11.6 °F 29.80 in ENE 0.5 mph 1 mph 91% 0.00 in 0 W/m2
05:34 13.7 °F 11.6 °F 29.80 in ENE 0.1 mph 1 mph 91% 0.00 in 0 W/m2
05:39 13.9 °F 11.7 °F 29.80 in ENE 0.7 mph 2 mph 91% 0.00 in 0 W/m2
05:44 13.9 °F 11.8 °F 29.80 in ENE 1.2 mph 2 mph 91% 0.00 in 0 W/m2
05:49 13.9 °F 11.8 °F 29.80 in ENE 0.5 mph 2 mph 91% 0.00 in 0 W/m2
05:54 13.9 °F 11.8 °F 29.80 in ENE 0.5 mph 1 mph 91% 0.00 in 0 W/m2
05:59 14 °F 11.8 °F 29.81 in ENE 0.1 mph 1 mph 91% 0.00 in 0 W/m2
06:04 14.1 °F 12 °F 29.81 in Calm     91% 0.00 in 0 W/m2
06:09 14.1 °F 12 °F 29.81 in Calm     91% 0.00 in 0 W/m2
06:14 14.1 °F 12 °F 29.81 in ENE 0.2 mph 1 mph 91% 0.00 in 0 W/m2
06:19 14.1 °F 12 °F 29.81 in ENE 0.2 mph 1 mph 91% 0.00 in 0 W/m2
06:24 14.1 °F 12 °F 29.81 in ENE 0.2 mph 1 mph 91% 0.00 in 0 W/m2
06:29 14.1 °F 12 °F 29.81 in ENE 0.2 mph 2 mph 91% 0.00 in 0 W/m2
06:34 14.2 °F 12.1 °F 29.81 in NE 0.7 mph 2 mph 91% 0.00 in 0 W/m2
06:39 14.2 °F 12.1 °F 29.81 in ENE 0.2 mph 1 mph 91% 0.00 in 0 W/m2
06:44 14.2 °F 12.1 °F 29.82 in ENE 0.1 mph 1 mph 91.3% 0.00 in 0 W/m2
06:49 14.2 °F 12.2 °F 29.82 in ENE 0.3 mph 1 mph 91.7% 0.00 in 0 W/m2
06:54 14.2 °F 12.3 °F 29.82 in ENE 0.5 mph 2 mph 92% 0.00 in 0 W/m2
06:59 14.4 °F 12.5 °F 29.82 in ENE 0.2 mph 2 mph 92% 0.00 in 0 W/m2
07:04 14.4 °F 12.5 °F 29.82 in Calm     92% 0.00 in 0 W/m2
07:09 14.4 °F 12.5 °F 29.82 in Calm     92% 0.00 in 0 W/m2
07:14 14.4 °F 12.5 °F 29.83 in Calm     92% 0.00 in 0 W/m2
07:19 14.4 °F 12.5 °F 29.83 in ENE 0.4 mph 1 mph 92% 0.00 in 0 W/m2
07:24 14.4 °F 12.5 °F 29.83 in ENE 0.1 mph 1 mph 92% 0.00 in 0 W/m2
07:29 14.4 °F 12.5 °F 29.83 in ENE 0.5 mph 2 mph 92% 0.00 in 5 W/m2
07:34 14.5 °F 12.6 °F 29.83 in Calm   1 mph 92% 0.00 in 5 W/m2
07:39 14.5 °F 12.6 °F 29.83 in Calm     92% 0.00 in 5 W/m2
07:44 14.5 °F 12.6 °F 29.84 in ENE 0.2 mph 1 mph 92% 0.00 in 5 W/m2
07:49 14.6 °F 12.7 °F 29.84 in ENE 0.3 mph 1 mph 92% 0.00 in 9 W/m2
07:54 14.7 °F 12.8 °F 29.84 in Calm   1 mph 92% 0.00 in 11 W/m2
07:59 14.8 °F 12.9 °F 29.84 in Calm     92% 0.00 in 12 W/m2
08:04 14.9 °F 13 °F 29.84 in Calm     92% 0.00 in 14 W/m2
08:09 15 °F 13.1 °F 29.84 in Calm     92% 0.00 in 18 W/m2
08:14 15.1 °F 13.2 °F 29.84 in Calm     92% 0.00 in 21 W/m2
08:19 15.2 °F 13.3 °F 29.84 in Calm     92% 0.00 in 25 W/m2
08:24 15.2 °F 13.3 °F 29.84 in Calm     92% 0.00 in 26 W/m2
08:29 15.3 °F 13.4 °F 29.84 in Calm     92% 0.00 in 28 W/m2
08:34 15.6 °F 13.7 °F 29.84 in Calm     92% 0.00 in 30 W/m2
08:39 15.7 °F 13.8 °F 29.84 in Calm     92% 0.00 in 35 W/m2
08:44 15.9 °F 14 °F 29.85 in ENE 0.1 mph 1 mph 92% 0.00 in 39 W/m2
08:49 16.1 °F 14 °F 29.85 in ENE 0.7 mph 1 mph 91.1% 0.00 in 46 W/m2
08:54 16.3 °F 14.1 °F 29.85 in ENE 1.6 mph 3 mph 91% 0.00 in 46 W/m2
08:59 16.2 °F 13.9 °F 29.85 in ENE 1.7 mph 3 mph 90.7% 0.00 in 48 W/m2
09:04 16.1 °F 13.9 °F 29.85 in ENE 1.9 mph 3 mph 91% 0.00 in 53 W/m2
09:09 16.2 °F 14 °F 29.85 in ENE 1.4 mph 3 mph 90.8% 0.00 in 51 W/m2
09:14 16.3 °F 14.1 °F 29.85 in ENE 0.9 mph 2 mph 90.9% 0.00 in 67 W/m2
09:19 16.5 °F 14.3 °F 29.85 in ENE 0.2 mph 1 mph 90.7% 0.00 in 93 W/m2
09:24 16.9 °F 14.7 °F 29.85 in ENE 0.3 mph 1 mph 90.8% 0.00 in 121 W/m2
09:29 17.3 °F 14.9 °F 29.85 in NE 0.4 mph 1 mph 90.3% 0.00 in 104 W/m2
09:34 17.6 °F 15.2 °F 29.85 in NE 0.5 mph 1 mph 90% 0.00 in 167 W/m2
09:39 18.1 °F 15.6 °F 29.85 in NE 0.2 mph 1 mph 89.6% 0.00 in 167 W/m2
09:44 18.6 °F 15.9 °F 29.85 in Calm   1 mph 89% 0.00 in 266 W/m2
09:49 19.4 °F 16.6 °F 29.85 in NE 0.2 mph 2 mph 88.8% 0.00 in 267 W/m2
09:54 20.3 °F 17.3 °F 29.85 in ENE 0.3 mph 2 mph 88% 0.00 in 278 W/m2
09:59 21.1 °F 17.9 °F 29.85 in ENE 0.3 mph 1 mph 87% 0.00 in 412 W/m2
10:04 22 °F 18.7 °F 29.85 in SSW 1.4 mph 3 mph 86.8% 0.00 in 317 W/m2
10:09 23.1 °F 19.5 °F 29.85 in SSW 1.8 mph 5 mph 86% 0.00 in 343 W/m2
10:14 23.6 °F 20 °F 29.86 in SSW 1.8 mph 3 mph 85.8% 0.00 in 343 W/m2
10:19 23.9 °F 20.1 °F 29.86 in SSW 1.3 mph 3 mph 85% 0.00 in 303 W/m2
10:24 24.4 °F 20.6 °F 29.86 in South 1.2 mph 3 mph 85% 0.00 in 401 W/m2
10:29 25.1 °F 21.2 °F 29.86 in SSW 2 mph 5 mph 84.7% 0.00 in 449 W/m2
10:34 25.7 °F 21.5 °F 29.86 in SSW 2 mph 5 mph 83.7% 0.00 in 387 W/m2
10:39 26.1 °F 21.5 °F 29.86 in SSW 1.8 mph 5 mph 82.7% 0.00 in 333 W/m2
10:44 25.9 °F 21.2 °F 29.86 in SSW 2.7 mph 5 mph 82% 0.00 in 333 W/m2
10:49 26 °F 21.4 °F 29.86 in SSW 1.8 mph 5 mph 82.3% 0.00 in 336 W/m2
10:54 26.2 °F 21.5 °F 29.86 in SSW 1.9 mph 5 mph 82% 0.00 in 297 W/m2
10:59 26.5 °F 21.7 °F 29.86 in SW 2.1 mph 6 mph 82% 0.00 in 324 W/m2
11:04 26.7 °F 21.7 °F 29.86 in SSW 2.5 mph 6 mph 81% 0.00 in 289 W/m2
11:09 26.8 °F 21.8 °F 29.86 in SW 1.4 mph 5 mph 81% 0.00 in 289 W/m2
11:14 27 °F 21.9 °F 29.86 in SSW 2.1 mph 6 mph 80.7% 0.00 in 292 W/m2
11:19 27.1 °F 21.9 °F 29.85 in SSW 2.1 mph 6 mph 80.2% 0.00 in 292 W/m2
11:24 27.3 °F 22 °F 29.85 in SSW 2 mph 6 mph 80% 0.00 in 278 W/m2
11:29 27.5 °F 22.1 °F 29.85 in SSW 1.2 mph 3 mph 80% 0.01 in 276 W/m2
11:34 27.7 °F 22 °F 29.85 in SW 2.8 mph 7 mph 79% 0.01 in 267 W/m2
11:39 27.7 °F 21.8 °F 29.85 in SSW 3.7 mph 8 mph 78% 0.01 in 236 W/m2
11:44 27.7 °F 21.7 °F 29.85 in SW 3.2 mph 8 mph 78% 0.01 in 216 W/m2
11:49 27.6 °F 21.6 °F 29.85 in SSW 1.9 mph 8 mph 78% 0.01 in 202 W/m2
11:54 27.7 °F 21.7 °F 29.85 in SSW 3.4 mph 8 mph 77.7% 0.01 in 194 W/m2
11:59 27.8 °F 21.6 °F 29.85 in SW 1.8 mph 6 mph 77.3% 0.01 in 195 W/m2
12:04 27.9 °F 21.7 °F 29.84 in SW 1.5 mph 4 mph 77% 0.01 in 227 W/m2
12:09 28 °F 21.8 °F 29.84 in SW 1.6 mph 5 mph 77% 0.01 in 201 W/m2
12:14 28.1 °F 21.9 °F 29.84 in SSW 1 mph 9 mph 77% 0.01 in 197 W/m2
12:19 28.3 °F 21.8 °F 29.84 in SW 2.3 mph 9 mph 76.3% 0.01 in 176 W/m2
12:24 28.3 °F 21.7 °F 29.84 in SW 1.9 mph 7 mph 75.8% 0.01 in 150 W/m2
12:29 28.3 °F 21.7 °F 29.84 in SSW 2 mph 5 mph 76% 0.01 in 160 W/m2
12:34 28.3 °F 21.8 °F 29.84 in SW 2.6 mph 7 mph 76.3% 0.01 in 259 W/m2
12:39 28.3 °F 22 °F 29.84 in WSW 1.7 mph 7 mph 77% 0.00 in 259 W/m2
12:44 28.9 °F 22.6 °F 29.84 in SW 2.3 mph 3 mph 77% 0.00 in 259 W/m2
12:45 29.2 °F 22.9 °F 29.83 in SW 4.1 mph 5 mph 77% 0.00 in 259 W/m2
Lisbon, New Hampshire, USA
Compliments of Weather Underground - 3.25 mb